sensor_id;sensor_type;location;lat;lon;timestamp;pressure;altitude;pressure_sealevel;temperature;humidity
69622;BME280;56841;55.964;37.674;2023-02-10T00:00:15;100557.53;;;-1.64;72.96
69622;BME280;56841;55.964;37.674;2023-02-10T00:02:40;100548.16;;;-1.67;73.43
69622;BME280;56841;55.964;37.674;2023-02-10T00:05:06;100555.13;;;-1.69;73.44
69622;BME280;56841;55.964;37.674;2023-02-10T00:07:32;100549.91;;;-1.67;72.99
69622;BME280;56841;55.964;37.674;2023-02-10T00:09:57;100539.25;;;-1.61;73.18
69622;BME280;56841;55.964;37.674;2023-02-10T00:12:23;100534.47;;;-1.50;73.21
69622;BME280;56841;55.964;37.674;2023-02-10T00:14:49;100516.31;;;-1.50;72.87
69622;BME280;56841;55.964;37.674;2023-02-10T00:17:14;100522.41;;;-1.51;72.78
69622;BME280;56841;55.964;37.674;2023-02-10T00:19:42;100520.28;;;-1.61;72.47
69622;BME280;56841;55.964;37.674;2023-02-10T00:22:08;100529.94;;;-1.65;72.69
69622;BME280;56841;55.964;37.674;2023-02-10T00:24:34;100525.41;;;-1.60;72.49
69622;BME280;56841;55.964;37.674;2023-02-10T00:26:59;100518.47;;;-1.59;72.11
69622;BME280;56841;55.964;37.674;2023-02-10T00:29:27;100520.66;;;-1.50;71.83
69622;BME280;56841;55.964;37.674;2023-02-10T00:31:54;100509.66;;;-1.55;70.83
69622;BME280;56841;55.964;37.674;2023-02-10T00:34:20;100502.41;;;-1.68;70.03
69622;BME280;56841;55.964;37.674;2023-02-10T00:36:49;100507.47;;;-1.64;69.98
69622;BME280;56841;55.964;37.674;2023-02-10T00:39:17;100497.31;;;-1.69;70.13
69622;BME280;56841;55.964;37.674;2023-02-10T00:41:43;100493.81;;;-1.68;70.07
69622;BME280;56841;55.964;37.674;2023-02-10T00:44:09;100489.34;;;-1.64;69.98
69622;BME280;56841;55.964;37.674;2023-02-10T00:46:35;100487.53;;;-1.62;70.03
69622;BME280;56841;55.964;37.674;2023-02-10T00:49:04;100483.75;;;-1.74;69.94
69622;BME280;56841;55.964;37.674;2023-02-10T00:51:30;100471.56;;;-1.72;70.03
69622;BME280;56841;55.964;37.674;2023-02-10T00:53:56;100470.72;;;-1.73;70.15
69622;BME280;56841;55.964;37.674;2023-02-10T00:56:22;100461.63;;;-1.81;69.92
69622;BME280;56841;55.964;37.674;2023-02-10T00:58:48;100466.03;;;-1.83;70.03
69622;BME280;56841;55.964;37.674;2023-02-10T01:01:14;100461.97;;;-1.89;70.09
69622;BME280;56841;55.964;37.674;2023-02-10T01:03:40;100464.28;;;-1.83;70.44
69622;BME280;56841;55.964;37.674;2023-02-10T01:06:06;100460.19;;;-1.88;70.47
69622;BME280;56841;55.964;37.674;2023-02-10T01:08:33;100452.78;;;-1.96;70.92
69622;BME280;56841;55.964;37.674;2023-02-10T01:11:05;100452.56;;;-1.92;71.13
69622;BME280;56841;55.964;37.674;2023-02-10T01:13:31;100445.03;;;-1.96;71.68
69622;BME280;56841;55.964;37.674;2023-02-10T01:15:59;100443.69;;;-2.05;71.74
69622;BME280;56841;55.964;37.674;2023-02-10T01:18:25;100455.84;;;-2.07;71.76
69622;BME280;56841;55.964;37.674;2023-02-10T01:20:52;100444.53;;;-2.04;71.67
69622;BME280;56841;55.964;37.674;2023-02-10T01:23:19;100432.56;;;-2.07;71.61
69622;BME280;56841;55.964;37.674;2023-02-10T01:25:45;100427.16;;;-2.02;71.62
69622;BME280;56841;55.964;37.674;2023-02-10T01:28:11;100423.88;;;-2.06;71.70
69622;BME280;56841;55.964;37.674;2023-02-10T01:30:37;100413.59;;;-2.07;71.64
69622;BME280;56841;55.964;37.674;2023-02-10T01:33:03;100407.59;;;-2.08;71.83
69622;BME280;56841;55.964;37.674;2023-02-10T01:35:29;100405.06;;;-2.09;72.14
69622;BME280;56841;55.964;37.674;2023-02-10T01:37:55;100404.56;;;-2.18;72.08
69622;BME280;56841;55.964;37.674;2023-02-10T01:40:23;100413.03;;;-2.14;71.90
69622;BME280;56841;55.964;37.674;2023-02-10T01:42:50;100409.88;;;-2.21;71.75
69622;BME280;56841;55.964;37.674;2023-02-10T01:45:32;100409.16;;;-2.24;71.67
69622;BME280;56841;55.964;37.674;2023-02-10T01:47:59;100408.34;;;-2.25;71.35
69622;BME280;56841;55.964;37.674;2023-02-10T01:50:29;100397.91;;;-2.23;71.99
69622;BME280;56841;55.964;37.674;2023-02-10T01:52:57;100394.81;;;-2.31;71.72
69622;BME280;56841;55.964;37.674;2023-02-10T01:55:28;100397.41;;;-2.31;71.81
69622;BME280;56841;55.964;37.674;2023-02-10T01:57:55;100392.38;;;-2.34;71.74
69622;BME280;56841;55.964;37.674;2023-02-10T02:00:22;100390.56;;;-2.32;71.74
69622;BME280;56841;55.964;37.674;2023-02-10T02:02:49;100387.13;;;-2.33;72.07
69622;BME280;56841;55.964;37.674;2023-02-10T02:05:22;100387.97;;;-2.32;71.97
69622;BME280;56841;55.964;37.674;2023-02-10T02:07:52;100389.84;;;-2.36;72.41
69622;BME280;56841;55.964;37.674;2023-02-10T02:10:18;100390.97;;;-2.23;71.79
69622;BME280;56841;55.964;37.674;2023-02-10T02:12:54;100379.94;;;-2.26;72.00
69622;BME280;56841;55.964;37.674;2023-02-10T02:15:37;100374.72;;;-2.25;72.13
69622;BME280;56841;55.964;37.674;2023-02-10T02:18:10;100379.19;;;-2.28;72.13
69622;BME280;56841;55.964;37.674;2023-02-10T02:34:42;100340.28;;;-2.46;72.57
69622;BME280;56841;55.964;37.674;2023-02-10T02:40:12;100330.13;;;-2.50;72.66
69622;BME280;56841;55.964;37.674;2023-02-10T02:42:38;100320.00;;;-2.55;72.45
69622;BME280;56841;55.964;37.674;2023-02-10T03:00:58;100298.28;;;-2.32;72.72
69622;BME280;56841;55.964;37.674;2023-02-10T03:03:33;100294.88;;;-2.32;72.79
69622;BME280;56841;55.964;37.674;2023-02-10T03:06:01;100285.69;;;-2.21;73.06
69622;BME280;56841;55.964;37.674;2023-02-10T03:08:29;100286.31;;;-2.34;72.71
69622;BME280;56841;55.964;37.674;2023-02-10T03:10:56;100280.59;;;-2.41;72.34
69622;BME280;56841;55.964;37.674;2023-02-10T03:13:22;100264.22;;;-2.42;72.55
69622;BME280;56841;55.964;37.674;2023-02-10T03:15:47;100273.09;;;-2.47;72.74
69622;BME280;56841;55.964;37.674;2023-02-10T03:18:14;100275.19;;;-2.36;72.57
69622;BME280;56841;55.964;37.674;2023-02-10T03:20:40;100264.28;;;-2.43;72.64
69622;BME280;56841;55.964;37.674;2023-02-10T03:23:06;100263.66;;;-2.48;72.95
69622;BME280;56841;55.964;37.674;2023-02-10T03:25:32;100248.78;;;-2.62;73.69
69622;BME280;56841;55.964;37.674;2023-02-10T03:28:00;100243.94;;;-2.51;73.63
69622;BME280;56841;55.964;37.674;2023-02-10T03:30:26;100230.63;;;-2.42;73.18
69622;BME280;56841;55.964;37.674;2023-02-10T03:32:52;100234.16;;;-2.44;73.28
69622;BME280;56841;55.964;37.674;2023-02-10T03:35:22;100233.81;;;-2.36;73.14
69622;BME280;56841;55.964;37.674;2023-02-10T03:37:49;100220.81;;;-2.35;73.06
69622;BME280;56841;55.964;37.674;2023-02-10T03:40:14;100210.94;;;-2.27;72.81
69622;BME280;56841;55.964;37.674;2023-02-10T03:42:40;100220.59;;;-2.30;72.94
69622;BME280;56841;55.964;37.674;2023-02-10T03:45:06;100203.56;;;-2.34;72.89
69622;BME280;56841;55.964;37.674;2023-02-10T03:47:32;100199.31;;;-2.35;72.56
69622;BME280;56841;55.964;37.674;2023-02-10T03:49:58;100200.28;;;-2.38;73.02
69622;BME280;56841;55.964;37.674;2023-02-10T03:52:24;100194.59;;;-2.27;72.78
69622;BME280;56841;55.964;37.674;2023-02-10T03:54:49;100195.78;;;-2.34;73.03
69622;BME280;56841;55.964;37.674;2023-02-10T03:57:15;100185.06;;;-2.27;73.01
69622;BME280;56841;55.964;37.674;2023-02-10T03:59:40;100185.16;;;-2.28;72.69
69622;BME280;56841;55.964;37.674;2023-02-10T04:02:06;100182.50;;;-2.27;72.75
69622;BME280;56841;55.964;37.674;2023-02-10T04:04:32;100174.81;;;-2.28;72.81
69622;BME280;56841;55.964;37.674;2023-02-10T04:06:58;100179.16;;;-2.29;72.85
69622;BME280;56841;55.964;37.674;2023-02-10T04:09:24;100160.81;;;-2.24;72.87
69622;BME280;56841;55.964;37.674;2023-02-10T04:11:49;100168.72;;;-2.27;72.86
69622;BME280;56841;55.964;37.674;2023-02-10T04:14:15;100155.19;;;-2.32;73.16
69622;BME280;56841;55.964;37.674;2023-02-10T04:16:41;100159.50;;;-2.33;73.17
69622;BME280;56841;55.964;37.674;2023-02-10T04:19:07;100159.81;;;-2.39;73.67
69622;BME280;56841;55.964;37.674;2023-02-10T04:21:33;100155.53;;;-2.40;73.70
69622;BME280;56841;55.964;37.674;2023-02-10T04:23:58;100149.53;;;-2.41;73.83
69622;BME280;56841;55.964;37.674;2023-02-10T04:26:24;100142.53;;;-2.39;73.81
69622;BME280;56841;55.964;37.674;2023-02-10T04:28:49;100143.03;;;-2.49;73.73
69622;BME280;56841;55.964;37.674;2023-02-10T04:31:16;100132.75;;;-2.51;73.67
69622;BME280;56841;55.964;37.674;2023-02-10T04:33:43;100133.69;;;-2.52;73.99
69622;BME280;56841;55.964;37.674;2023-02-10T04:36:09;100141.75;;;-2.41;73.78
69622;BME280;56841;55.964;37.674;2023-02-10T04:38:34;100127.53;;;-2.49;73.79
69622;BME280;56841;55.964;37.674;2023-02-10T04:41:00;100121.81;;;-2.56;73.86
69622;BME280;56841;55.964;37.674;2023-02-10T04:43:28;100136.41;;;-2.55;73.79
69622;BME280;56841;55.964;37.674;2023-02-10T04:45:54;100125.38;;;-2.58;74.24
69622;BME280;56841;55.964;37.674;2023-02-10T04:48:20;100127.50;;;-2.67;74.29
69622;BME280;56841;55.964;37.674;2023-02-10T04:50:46;100122.09;;;-2.62;74.44
69622;BME280;56841;55.964;37.674;2023-02-10T04:53:12;100112.50;;;-2.60;74.24
69622;BME280;56841;55.964;37.674;2023-02-10T04:55:38;100117.84;;;-2.63;74.42
69622;BME280;56841;55.964;37.674;2023-02-10T04:58:04;100121.16;;;-2.61;74.30
69622;BME280;56841;55.964;37.674;2023-02-10T05:00:30;100120.88;;;-2.55;74.13
69622;BME280;56841;55.964;37.674;2023-02-10T05:02:56;100129.47;;;-2.54;74.14
69622;BME280;56841;55.964;37.674;2023-02-10T05:05:22;100128.00;;;-2.60;74.32
69622;BME280;56841;55.964;37.674;2023-02-10T05:07:50;100128.78;;;-2.58;74.22
69622;BME280;56841;55.964;37.674;2023-02-10T05:10:16;100118.38;;;-2.56;74.53
69622;BME280;56841;55.964;37.674;2023-02-10T05:12:42;100119.28;;;-2.57;74.33
69622;BME280;56841;55.964;37.674;2023-02-10T05:15:08;100109.16;;;-2.62;74.66
69622;BME280;56841;55.964;37.674;2023-02-10T05:17:34;100123.91;;;-2.64;74.50
69622;BME280;56841;55.964;37.674;2023-02-10T05:20:00;100115.03;;;-2.58;74.32
69622;BME280;56841;55.964;37.674;2023-02-10T05:22:28;100116.69;;;-2.57;74.55
69622;BME280;56841;55.964;37.674;2023-02-10T05:24:58;100100.03;;;-2.69;74.57
69622;BME280;56841;55.964;37.674;2023-02-10T05:27:24;100096.81;;;-2.74;74.89
69622;BME280;56841;55.964;37.674;2023-02-10T05:29:50;100091.22;;;-2.65;74.75
69622;BME280;56841;55.964;37.674;2023-02-10T05:32:16;100097.56;;;-2.72;74.78
69622;BME280;56841;55.964;37.674;2023-02-10T05:34:42;100091.44;;;-2.70;74.86
69622;BME280;56841;55.964;37.674;2023-02-10T05:37:08;100092.03;;;-2.65;74.66
69622;BME280;56841;55.964;37.674;2023-02-10T05:39:33;100086.81;;;-2.82;75.03
69622;BME280;56841;55.964;37.674;2023-02-10T05:41:59;100069.72;;;-2.84;74.71
69622;BME280;56841;55.964;37.674;2023-02-10T05:44:26;100085.44;;;-2.89;75.03
69622;BME280;56841;55.964;37.674;2023-02-10T05:46:53;100077.91;;;-2.94;75.36
69622;BME280;56841;55.964;37.674;2023-02-10T05:49:18;100078.38;;;-2.86;75.36
69622;BME280;56841;55.964;37.674;2023-02-10T05:51:44;100070.53;;;-2.84;75.18
69622;BME280;56841;55.964;37.674;2023-02-10T05:54:11;100072.56;;;-2.91;75.28
69622;BME280;56841;55.964;37.674;2023-02-10T05:56:37;100062.19;;;-2.89;75.32
69622;BME280;56841;55.964;37.674;2023-02-10T05:59:04;100056.31;;;-2.93;75.16
69622;BME280;56841;55.964;37.674;2023-02-10T06:01:30;100058.22;;;-2.96;75.27
69622;BME280;56841;55.964;37.674;2023-02-10T06:03:56;100052.69;;;-2.89;75.21
69622;BME280;56841;55.964;37.674;2023-02-10T06:06:22;100055.34;;;-2.90;75.10
69622;BME280;56841;55.964;37.674;2023-02-10T06:08:47;100046.94;;;-2.95;75.06
69622;BME280;56841;55.964;37.674;2023-02-10T06:11:13;100057.25;;;-2.94;75.30
69622;BME280;56841;55.964;37.674;2023-02-10T06:13:39;100042.47;;;-2.92;75.20
69622;BME280;56841;55.964;37.674;2023-02-10T06:16:06;100041.88;;;-2.97;75.43
69622;BME280;56841;55.964;37.674;2023-02-10T06:18:32;100039.06;;;-2.92;75.21
69622;BME280;56841;55.964;37.674;2023-02-10T06:20:57;100029.28;;;-2.86;74.78
69622;BME280;56841;55.964;37.674;2023-02-10T06:23:24;100005.09;;;-2.84;74.69
69622;BME280;56841;55.964;37.674;2023-02-10T06:25:50;100001.41;;;-2.79;74.62
69622;BME280;56841;55.964;37.674;2023-02-10T06:28:24;99996.00;;;-2.74;74.49
69622;BME280;56841;55.964;37.674;2023-02-10T06:30:50;99989.84;;;-2.72;74.07
69622;BME280;56841;55.964;37.674;2023-02-10T06:33:17;99986.69;;;-2.59;73.84
69622;BME280;56841;55.964;37.674;2023-02-10T06:35:43;99973.97;;;-2.64;73.64
69622;BME280;56841;55.964;37.674;2023-02-10T06:38:09;99973.50;;;-2.72;73.75
69622;BME280;56841;55.964;37.674;2023-02-10T06:40:35;99974.78;;;-2.81;73.71
69622;BME280;56841;55.964;37.674;2023-02-10T06:43:01;99979.75;;;-2.76;73.39
69622;BME280;56841;55.964;37.674;2023-02-10T06:45:27;99963.47;;;-2.78;73.41
69622;BME280;56841;55.964;37.674;2023-02-10T06:47:54;99961.03;;;-2.81;73.68
69622;BME280;56841;55.964;37.674;2023-02-10T06:50:20;99947.25;;;-2.82;73.49
69622;BME280;56841;55.964;37.674;2023-02-10T06:52:47;99938.06;;;-2.70;73.23
69622;BME280;56841;55.964;37.674;2023-02-10T06:55:14;99919.53;;;-2.61;72.79
69622;BME280;56841;55.964;37.674;2023-02-10T06:57:40;99917.47;;;-2.54;72.59
69622;BME280;56841;55.964;37.674;2023-02-10T07:00:10;99918.44;;;-2.57;72.25
69622;BME280;56841;55.964;37.674;2023-02-10T07:02:36;99913.28;;;-2.57;72.11
69622;BME280;56841;55.964;37.674;2023-02-10T07:05:07;99910.31;;;-2.49;71.79
69622;BME280;56841;55.964;37.674;2023-02-10T07:07:34;99904.00;;;-2.61;71.54
69622;BME280;56841;55.964;37.674;2023-02-10T07:10:00;99897.47;;;-2.51;71.47
69622;BME280;56841;55.964;37.674;2023-02-10T07:12:26;99886.56;;;-2.40;70.90
69622;BME280;56841;55.964;37.674;2023-02-10T07:14:52;99881.44;;;-2.24;69.98
69622;BME280;56841;55.964;37.674;2023-02-10T07:17:19;99881.09;;;-2.34;69.33
69622;BME280;56841;55.964;37.674;2023-02-10T07:19:45;99881.03;;;-2.32;69.41
69622;BME280;56841;55.964;37.674;2023-02-10T07:22:10;99891.00;;;-2.42;69.34
69622;BME280;56841;55.964;37.674;2023-02-10T07:24:36;99879.88;;;-2.44;69.46
69622;BME280;56841;55.964;37.674;2023-02-10T07:27:03;99871.81;;;-2.38;69.40
69622;BME280;56841;55.964;37.674;2023-02-10T07:29:29;99854.53;;;-2.38;68.97
69622;BME280;56841;55.964;37.674;2023-02-10T07:31:55;99851.13;;;-2.38;68.88
69622;BME280;56841;55.964;37.674;2023-02-10T07:34:24;99857.91;;;-2.35;68.93
69622;BME280;56841;55.964;37.674;2023-02-10T07:36:50;99862.06;;;-2.33;68.61
69622;BME280;56841;55.964;37.674;2023-02-10T07:39:28;99854.91;;;-2.28;68.37
69622;BME280;56841;55.964;37.674;2023-02-10T07:41:54;99855.16;;;-2.17;68.33
69622;BME280;56841;55.964;37.674;2023-02-10T07:44:25;99842.75;;;-2.10;68.14
69622;BME280;56841;55.964;37.674;2023-02-10T07:46:52;99844.69;;;-1.98;67.73
69622;BME280;56841;55.964;37.674;2023-02-10T07:49:17;99832.75;;;-1.84;67.69
69622;BME280;56841;55.964;37.674;2023-02-10T07:51:43;99817.06;;;-1.97;67.82
69622;BME280;56841;55.964;37.674;2023-02-10T07:54:10;99829.06;;;-1.96;67.72
69622;BME280;56841;55.964;37.674;2023-02-10T07:56:36;99816.13;;;-1.96;68.13
69622;BME280;56841;55.964;37.674;2023-02-10T07:59:02;99826.47;;;-1.96;68.09
69622;BME280;56841;55.964;37.674;2023-02-10T08:01:28;99812.19;;;-2.03;67.89
69622;BME280;56841;55.964;37.674;2023-02-10T08:03:54;99817.13;;;-1.99;68.28
69622;BME280;56841;55.964;37.674;2023-02-10T08:06:21;99815.19;;;-1.79;68.08
69622;BME280;56841;55.964;37.674;2023-02-10T08:08:47;99814.28;;;-1.94;67.90
69622;BME280;56841;55.964;37.674;2023-02-10T08:11:14;99828.47;;;-1.85;68.10
69622;BME280;56841;55.964;37.674;2023-02-10T08:13:40;99818.69;;;-1.64;67.36
69622;BME280;56841;55.964;37.674;2023-02-10T08:16:06;99813.59;;;-1.66;66.97
69622;BME280;56841;55.964;37.674;2023-02-10T08:18:39;99811.41;;;-1.58;66.95
69622;BME280;56841;55.964;37.674;2023-02-10T08:21:05;99816.78;;;-1.31;66.64
69622;BME280;56841;55.964;37.674;2023-02-10T08:23:31;99794.50;;;-1.33;65.74
69622;BME280;56841;55.964;37.674;2023-02-10T08:25:58;99768.44;;;-1.60;66.28
69622;BME280;56841;55.964;37.674;2023-02-10T08:28:23;99809.00;;;-1.61;66.41
69622;BME280;56841;55.964;37.674;2023-02-10T08:30:49;99794.53;;;-1.49;66.28
69622;BME280;56841;55.964;37.674;2023-02-10T08:33:15;99783.94;;;-1.30;65.79
69622;BME280;56841;55.964;37.674;2023-02-10T08:35:41;99784.22;;;-1.35;65.03
69622;BME280;56841;55.964;37.674;2023-02-10T08:38:07;99788.97;;;-1.27;65.19
69622;BME280;56841;55.964;37.674;2023-02-10T08:40:36;99778.72;;;-1.14;65.16
69622;BME280;56841;55.964;37.674;2023-02-10T08:43:02;99780.69;;;-1.04;64.40
69622;BME280;56841;55.964;37.674;2023-02-10T08:45:28;99769.19;;;-1.14;64.43
69622;BME280;56841;55.964;37.674;2023-02-10T08:47:53;99759.47;;;-1.10;63.89
69622;BME280;56841;55.964;37.674;2023-02-10T08:50:19;99740.16;;;-0.90;64.00
69622;BME280;56841;55.964;37.674;2023-02-10T08:52:45;99745.44;;;-0.92;63.79
69622;BME280;56841;55.964;37.674;2023-02-10T08:55:11;99732.84;;;-0.84;63.82
69622;BME280;56841;55.964;37.674;2023-02-10T08:57:38;99726.44;;;-0.92;63.63
69622;BME280;56841;55.964;37.674;2023-02-10T09:00:06;99718.50;;;-0.75;63.70
69622;BME280;56841;55.964;37.674;2023-02-10T09:02:32;99722.22;;;-0.65;63.03
69622;BME280;56841;55.964;37.674;2023-02-10T09:04:58;99734.97;;;-0.76;62.55
69622;BME280;56841;55.964;37.674;2023-02-10T09:07:23;99705.78;;;-0.51;62.51
69622;BME280;56841;55.964;37.674;2023-02-10T09:09:49;99717.19;;;-0.54;62.46
69622;BME280;56841;55.964;37.674;2023-02-10T09:12:15;99702.56;;;-0.55;61.92
69622;BME280;56841;55.964;37.674;2023-02-10T09:14:41;99693.69;;;-0.38;61.66
69622;BME280;56841;55.964;37.674;2023-02-10T09:17:07;99690.34;;;-0.26;61.22
69622;BME280;56841;55.964;37.674;2023-02-10T09:19:37;99677.91;;;-0.47;61.25
69622;BME280;56841;55.964;37.674;2023-02-10T09:22:04;99668.81;;;-0.40;61.16
69622;BME280;56841;55.964;37.674;2023-02-10T09:24:31;99659.44;;;-0.43;60.74
69622;BME280;56841;55.964;37.674;2023-02-10T09:26:57;99664.75;;;-0.44;60.67
69622;BME280;56841;55.964;37.674;2023-02-10T09:29:22;99659.16;;;-0.38;60.71
69622;BME280;56841;55.964;37.674;2023-02-10T09:31:48;99648.81;;;-0.53;59.99
69622;BME280;56841;55.964;37.674;2023-02-10T09:34:14;99647.13;;;-0.39;59.89
69622;BME280;56841;55.964;37.674;2023-02-10T09:36:40;99653.53;;;-0.18;59.99
69622;BME280;56841;55.964;37.674;2023-02-10T09:39:06;99647.63;;;-0.07;59.50
69622;BME280;56841;55.964;37.674;2023-02-10T09:46:43;99658.81;;;-0.19;59.14
69622;BME280;56841;55.964;37.674;2023-02-10T09:49:30;99659.34;;;-0.14;59.13
69622;BME280;56841;55.964;37.674;2023-02-10T09:54:34;99661.66;;;-0.10;58.95
69622;BME280;56841;55.964;37.674;2023-02-10T09:57:05;99658.13;;;-0.09;58.35
69622;BME280;56841;55.964;37.674;2023-02-10T09:59:35;99657.31;;;-0.09;58.08
69622;BME280;56841;55.964;37.674;2023-02-10T10:02:14;99648.06;;;-0.13;58.11
69622;BME280;56841;55.964;37.674;2023-02-10T10:04:43;99637.88;;;-0.04;57.76
69622;BME280;56841;55.964;37.674;2023-02-10T10:07:29;99629.91;;;-0.01;57.20
69622;BME280;56841;55.964;37.674;2023-02-10T10:12:51;99611.88;;;0.23;56.36
69622;BME280;56841;55.964;37.674;2023-02-10T10:15:18;99606.34;;;0.03;56.44
69622;BME280;56841;55.964;37.674;2023-02-10T10:20:31;99617.25;;;0.20;56.35
69622;BME280;56841;55.964;37.674;2023-02-10T10:28:49;99582.25;;;0.01;55.69
69622;BME280;56841;55.964;37.674;2023-02-10T10:31:24;99576.13;;;0.02;55.08
69622;BME280;56841;55.964;37.674;2023-02-10T10:34:02;99582.69;;;0.07;55.54
69622;BME280;56841;55.964;37.674;2023-02-10T10:36:38;99577.97;;;-0.01;55.72
69622;BME280;56841;55.964;37.674;2023-02-10T10:41:44;99560.13;;;-0.05;54.95
69622;BME280;56841;55.964;37.674;2023-02-10T10:44:12;99552.34;;;-0.05;54.54
69622;BME280;56841;55.964;37.674;2023-02-10T10:46:43;99550.16;;;0.02;54.61
69622;BME280;56841;55.964;37.674;2023-02-10T10:49:12;99558.97;;;-0.01;54.44
69622;BME280;56841;55.964;37.674;2023-02-10T10:51:38;99556.41;;;0.12;54.62
69622;BME280;56841;55.964;37.674;2023-02-10T10:54:06;99559.94;;;0.11;54.63
69622;BME280;56841;55.964;37.674;2023-02-10T10:56:56;99546.53;;;0.17;54.37
69622;BME280;56841;55.964;37.674;2023-02-10T10:59:43;99534.47;;;0.03;53.41
69622;BME280;56841;55.964;37.674;2023-02-10T11:02:17;99537.81;;;0.05;54.00
69622;BME280;56841;55.964;37.674;2023-02-10T11:04:44;99524.00;;;-0.08;53.84
69622;BME280;56841;55.964;37.674;2023-02-10T11:07:22;99509.69;;;0.12;53.98
69622;BME280;56841;55.964;37.674;2023-02-10T11:09:50;99507.41;;;0.07;53.01
69622;BME280;56841;55.964;37.674;2023-02-10T11:12:23;99506.56;;;-0.06;53.39
69622;BME280;56841;55.964;37.674;2023-02-10T11:14:51;99501.47;;;0.05;53.30
69622;BME280;56841;55.964;37.674;2023-02-10T11:17:30;99498.97;;;-0.09;53.37
69622;BME280;56841;55.964;37.674;2023-02-10T11:20:02;99489.72;;;-0.01;53.05
69622;BME280;56841;55.964;37.674;2023-02-10T11:22:29;99502.41;;;0.04;53.13
69622;BME280;56841;55.964;37.674;2023-02-10T11:25:00;99505.81;;;-0.08;53.07
69622;BME280;56841;55.964;37.674;2023-02-10T11:27:26;99486.22;;;0.01;53.46
69622;BME280;56841;55.964;37.674;2023-02-10T11:29:54;99487.34;;;0.09;53.36
69622;BME280;56841;55.964;37.674;2023-02-10T11:32:23;99487.97;;;0.13;53.57
69622;BME280;56841;55.964;37.674;2023-02-10T11:34:52;99488.50;;;0.18;53.16
69622;BME280;56841;55.964;37.674;2023-02-10T11:37:23;99493.69;;;0.18;52.57
69622;BME280;56841;55.964;37.674;2023-02-10T11:39:50;99477.28;;;0.05;52.65
69622;BME280;56841;55.964;37.674;2023-02-10T11:45:02;99469.06;;;-0.02;51.99
69622;BME280;56841;55.964;37.674;2023-02-10T11:47:31;99486.31;;;-0.01;53.00
69622;BME280;56841;55.964;37.674;2023-02-10T11:49:58;99474.69;;;0.05;53.35
69622;BME280;56841;55.964;37.674;2023-02-10T11:52:27;99469.06;;;-0.02;53.31
69622;BME280;56841;55.964;37.674;2023-02-10T11:54:56;99455.69;;;-0.09;52.98
69622;BME280;56841;55.964;37.674;2023-02-10T12:00:36;99448.91;;;-0.11;52.71
69622;BME280;56841;55.964;37.674;2023-02-10T12:03:28;99438.47;;;-0.10;53.03
69622;BME280;56841;55.964;37.674;2023-02-10T12:06:05;99442.69;;;-0.09;53.44
69622;BME280;56841;55.964;37.674;2023-02-10T12:11:54;99441.03;;;-0.22;52.79
69622;BME280;56841;55.964;37.674;2023-02-10T12:22:05;99423.78;;;-0.11;53.62
69622;BME280;56841;55.964;37.674;2023-02-10T12:24:50;99426.50;;;0.01;53.69
69622;BME280;56841;55.964;37.674;2023-02-10T12:49:47;99401.16;;;-0.34;53.97
69622;BME280;56841;55.964;37.674;2023-02-10T12:52:25;99401.81;;;-0.43;54.65
69622;BME280;56841;55.964;37.674;2023-02-10T12:59:59;99373.06;;;-0.53;54.92
69622;BME280;56841;55.964;37.674;2023-02-10T13:05:10;99367.88;;;-0.53;54.85
69622;BME280;56841;55.964;37.674;2023-02-10T13:10:31;99391.00;;;-0.50;55.37
69622;BME280;56841;55.964;37.674;2023-02-10T13:13:02;99371.28;;;-0.53;55.69
69622;BME280;56841;55.964;37.674;2023-02-10T13:15:38;99381.16;;;-0.58;56.20
69622;BME280;56841;55.964;37.674;2023-02-10T13:18:29;99375.13;;;-0.71;56.19
69622;BME280;56841;55.964;37.674;2023-02-10T13:21:06;99370.44;;;-0.66;56.69
69622;BME280;56841;55.964;37.674;2023-02-10T13:23:46;99368.06;;;-0.69;56.83
69622;BME280;56841;55.964;37.674;2023-02-10T13:26:32;99357.47;;;-0.79;56.99
69622;BME280;56841;55.964;37.674;2023-02-10T13:34:36;99372.00;;;-0.76;57.59
69622;BME280;56841;55.964;37.674;2023-02-10T13:37:07;99381.09;;;-0.83;57.93
69622;BME280;56841;55.964;37.674;2023-02-10T13:39:38;99381.03;;;-0.82;57.58
69622;BME280;56841;55.964;37.674;2023-02-10T13:42:37;99383.47;;;-0.93;58.38
69622;BME280;56841;55.964;37.674;2023-02-10T13:47:41;99385.03;;;-0.90;58.70
69622;BME280;56841;55.964;37.674;2023-02-10T13:52:58;99402.13;;;-1.01;58.88
69622;BME280;56841;55.964;37.674;2023-02-10T13:55:47;99395.09;;;-0.99;59.07
69622;BME280;56841;55.964;37.674;2023-02-10T14:00:50;99385.63;;;-1.00;59.26
69622;BME280;56841;55.964;37.674;2023-02-10T14:08:39;99368.13;;;-0.96;59.63
69622;BME280;56841;55.964;37.674;2023-02-10T14:14:03;99367.59;;;-1.01;59.45
69622;BME280;56841;55.964;37.674;2023-02-10T14:16:41;99384.72;;;-0.99;59.98
69622;BME280;56841;55.964;37.674;2023-02-10T14:19:24;99385.97;;;-0.91;59.83
69622;BME280;56841;55.964;37.674;2023-02-10T14:21:54;99380.06;;;-0.93;59.93
69622;BME280;56841;55.964;37.674;2023-02-10T14:24:26;99391.56;;;-0.98;59.61
69622;BME280;56841;55.964;37.674;2023-02-10T14:26:52;99381.81;;;-0.94;59.81
69622;BME280;56841;55.964;37.674;2023-02-10T14:29:21;99389.59;;;-0.94;60.12
69622;BME280;56841;55.964;37.674;2023-02-10T14:31:55;99390.63;;;-0.97;60.15
69622;BME280;56841;55.964;37.674;2023-02-10T14:34:28;99388.66;;;-0.93;60.16
69622;BME280;56841;55.964;37.674;2023-02-10T14:36:56;99382.75;;;-0.95;59.96
69622;BME280;56841;55.964;37.674;2023-02-10T14:39:24;99380.59;;;-0.88;60.09
69622;BME280;56841;55.964;37.674;2023-02-10T14:41:51;99378.09;;;-0.90;60.53
69622;BME280;56841;55.964;37.674;2023-02-10T14:44:39;99377.19;;;-0.89;60.42
69622;BME280;56841;55.964;37.674;2023-02-10T14:47:42;99378.09;;;-0.90;60.32
69622;BME280;56841;55.964;37.674;2023-02-10T14:50:01;99372.19;;;-0.92;60.59
69622;BME280;56841;55.964;37.674;2023-02-10T14:52:35;99378.09;;;-0.90;60.67
69622;BME280;56841;55.964;37.674;2023-02-10T14:55:21;99365.44;;;-0.94;60.80
69622;BME280;56841;55.964;37.674;2023-02-10T14:57:47;99365.31;;;-0.93;60.93